Time;durP1;ratioP1;P1;durP2;ratioP2;P2;SDS_P1;SDS_P2;PMS_P1;PMS_P2;Temp;Humidity;BMP_temperature;BMP_pressure;BME280_temperature;BME280_humidity;BME280_pressure;Samples;Min_cycle;Max_cycle;Signal;HPM_P1;HPM_P2
2022/06/07 00:02:14;;;;;;;10.15;6.53;;;;;;;19.47;73.12;100190.22;6241952;22;20150;-64
2022/06/07 00:04:40;;;;;;;10.93;6.72;;;;;;;19.47;73.37;100197.53;6241717;22;20070;-63
2022/06/07 00:07:06;;;;;;;6.82;6.15;;;;;;;19.45;73.98;100200.44;6241799;22;20016;-63
2022/06/07 00:09:32;;;;;;;8.23;6.63;;;;;;;19.39;74.23;100192.22;6241838;22;20456;-64
2022/06/07 00:11:58;;;;;;;7.13;6.35;;;;;;;19.35;74.52;100196.38;6241814;22;20000;-64
2022/06/07 00:14:24;;;;;;;8.32;6.60;;;;;;;19.22;74.50;100172.53;6241890;22;20007;-64
2022/06/07 00:16:51;;;;;;;7.35;6.60;;;;;;;19.21;74.61;100183.63;6240209;23;20014;-63
2022/06/07 00:19:17;;;;;;;9.45;7.20;;;;;;;19.23;74.73;100193.28;6241866;22;20473;-63
2022/06/07 00:21:42;;;;;;;7.25;6.55;;;;;;;19.20;75.13;100190.09;6241726;22;20007;-64
2022/06/07 00:24:08;;;;;;;7.63;6.80;;;;;;;19.15;75.16;100193.41;6241946;22;20004;-64
2022/06/07 00:26:37;;;;;;;9.13;7.00;;;;;;;19.11;76.12;100194.81;6241590;22;20000;-63
2022/06/07 00:29:04;;;;;;;8.82;6.80;;;;;;;19.04;76.33;100188.47;6240331;23;20011;-63
2022/06/07 00:31:29;;;;;;;8.23;7.43;;;;;;;18.99;76.53;100188.19;6241643;22;20340;-63
2022/06/07 00:33:55;;;;;;;9.88;6.78;;;;;;;19.03;76.50;100199.53;6241804;22;20011;-63
2022/06/07 00:36:21;;;;;;;9.38;7.45;;;;;;;18.98;77.09;100188.38;6241681;22;20010;-63
2022/06/07 00:38:47;;;;;;;8.50;7.07;;;;;;;18.96;77.02;100193.19;6241838;22;20491;-63
2022/06/07 00:41:13;;;;;;;8.07;7.15;;;;;;;18.93;77.22;100197.09;6241750;22;20012;-63
2022/06/07 00:43:41;;;;;;;9.13;7.20;;;;;;;18.83;77.52;100174.81;6241501;22;20396;-63
2022/06/07 00:46:11;;;;;;;8.07;7.28;;;;;;;18.84;78.07;100189.28;6241832;22;20008;-64
2022/06/07 00:48:38;;;;;;;10.55;7.40;;;;;;;18.81;78.16;100190.50;6241642;22;20456;-63
2022/06/07 00:51:08;;;;;;;9.90;6.95;;;;;;;18.79;78.46;100188.97;6241777;22;20005;-63
2022/06/07 00:53:35;;;;;;;9.65;7.50;;;;;;;18.75;78.69;100185.81;6241611;22;20082;-63
2022/06/07 00:56:02;;;;;;;8.00;7.22;;;;;;;18.71;78.98;100181.81;6241654;22;20007;-63
2022/06/07 00:58:30;;;;;;;9.38;7.93;;;;;;;18.64;79.35;100175.41;6241955;22;20047;-63
2022/06/07 01:00:57;;;;;;;9.13;7.07;;;;;;;18.59;79.44;100166.16;6243763;22;20091;-63
2022/06/07 01:03:23;;;;;;;8.75;7.82;;;;;;;18.63;79.90;100181.06;6243336;22;20364;-64
2022/06/07 01:05:50;;;;;;;8.30;7.45;;;;;;;18.59;79.63;100182.47;6243749;22;20374;-64
2022/06/07 01:11:02;;;;;;;8.48;7.57;;;;;;;18.55;80.06;100178.44;6226823;22;20007;-64
2022/06/07 01:13:32;;;;;;;11.15;8.57;;;;;;;18.52;80.18;100173.38;6241753;23;20058;-64
2022/06/07 01:16:06;;;;;;;9.82;7.63;;;;;;;18.49;79.89;100174.63;6243686;22;20082;-64
2022/06/07 01:18:32;;;;;;;;;;;;;;;18.46;80.56;100177.72;6243792;22;20031;-63
2022/06/07 01:21:22;;;;;;;8.80;7.90;;;;;;;18.47;80.12;100178.56;6243542;22;19919;-64
2022/06/07 01:23:48;;;;;;;11.02;7.75;;;;;;;18.42;80.16;100176.41;6243805;23;20402;-63
2022/06/07 01:26:14;;;;;;;11.45;8.52;;;;;;;18.45;80.80;100176.03;6243729;22;20054;-64
2022/06/07 01:28:40;;;;;;;11.43;7.95;;;;;;;18.46;80.64;100180.44;6243188;22;20004;-63
2022/06/07 01:31:05;;;;;;;8.68;7.75;;;;;;;18.47;80.73;100178.56;6243330;22;20027;-64
2022/06/07 01:33:31;;;;;;;10.15;8.40;;;;;;;18.44;81.28;100170.78;6243175;22;20012;-64
2022/06/07 01:36:02;;;;;;;12.18;8.05;;;;;;;18.44;81.64;100168.06;6243406;22;20011;-64
2022/06/07 01:38:30;;;;;;;10.13;7.97;;;;;;;18.44;81.26;100173.50;6241602;23;20031;-63
2022/06/07 01:43:40;;;;;;;10.90;8.20;;;;;;;18.41;82.05;100172.00;6242994;23;20452;-64
2022/06/07 01:46:05;;;;;;;10.93;7.95;;;;;;;18.41;82.57;100179.31;6243289;22;20004;-64
2022/06/07 01:48:31;;;;;;;11.35;8.35;;;;;;;18.37;82.13;100173.41;6243121;22;20103;-64
2022/06/07 01:51:01;;;;;;;9.00;8.10;;;;;;;18.31;82.36;100157.00;6243199;23;20058;-64
2022/06/07 01:53:26;;;;;;;8.95;8.02;;;;;;;18.25;82.08;100158.56;6243252;22;20054;-64
2022/06/07 01:55:51;;;;;;;9.52;8.07;;;;;;;18.30;82.11;100168.88;6241522;23;20001;-64
2022/06/07 01:58:17;;;;;;;9.57;8.45;;;;;;;18.29;82.94;100173.47;6243237;22;20016;-64
2022/06/07 02:00:42;;;;;;;8.05;7.25;;;;;;;18.28;83.51;100171.78;6243220;22;20020;-64
2022/06/07 02:03:08;;;;;;;9.73;8.75;;;;;;;18.28;83.41;100168.22;6241578;23;20019;-64
2022/06/07 02:05:33;;;;;;;9.15;8.15;;;;;;;18.27;83.06;100166.53;6243162;23;20015;-65
2022/06/07 02:07:59;;;;;;;8.52;7.72;;;;;;;18.24;82.66;100167.75;6243499;22;20440;-64
2022/06/07 02:10:24;;;;;;;9.30;8.38;;;;;;;18.22;83.23;100169.84;6242837;22;20050;-64
2022/06/07 02:12:50;;;;;;;9.27;8.07;;;;;;;18.20;83.34;100173.75;6243210;22;20008;-64
2022/06/07 02:15:15;;;;;;;9.77;8.25;;;;;;;18.17;83.07;100165.97;6243278;22;20008;-64
2022/06/07 02:17:41;;;;;;;10.55;7.93;;;;;;;18.15;83.51;100168.03;6243075;23;20000;-64
2022/06/07 02:20:07;;;;;;;11.30;7.95;;;;;;;18.06;83.85;100153.72;6241285;23;20008;-63
2022/06/07 02:22:32;;;;;;;9.63;8.38;;;;;;;18.12;83.97;100169.25;6241146;23;20429;-64
2022/06/07 02:24:58;;;;;;;10.57;8.73;;;;;;;18.10;83.98;100179.47;6242900;22;20008;-64
2022/06/07 02:27:23;;;;;;;9.55;8.55;;;;;;;18.08;83.26;100172.53;6242571;22;20004;-64
2022/06/07 02:29:54;;;;;;;9.98;8.00;;;;;;;18.04;83.40;100172.06;6243012;22;20011;-65
2022/06/07 02:32:28;;;;;;;10.18;8.55;;;;;;;17.98;83.74;100165.50;6242880;22;20472;-64
2022/06/07 02:34:57;;;;;;;9.70;8.65;;;;;;;17.97;83.93;100162.97;6243019;22;20083;-64
2022/06/07 02:37:24;;;;;;;11.27;8.55;;;;;;;17.93;84.31;100167.91;6240933;23;20415;-64
2022/06/07 02:39:50;;;;;;;9.48;8.50;;;;;;;17.89;84.13;100158.47;6242375;22;20388;-64
2022/06/07 02:42:17;;;;;;;11.98;8.27;;;;;;;17.85;84.60;100154.44;6242336;22;20007;-64
2022/06/07 02:44:44;;;;;;;10.13;8.65;;;;;;;17.83;84.74;100161.06;6242605;22;20000;-64
2022/06/07 02:47:09;;;;;;;9.90;8.90;;;;;;;17.81;84.81;100160.44;6242672;23;20474;-66
2022/06/07 02:49:34;;;;;;;10.95;8.45;;;;;;;17.73;85.27;100149.63;6242524;22;20008;-64
2022/06/07 02:52:00;;;;;;;10.57;9.48;;;;;;;17.76;85.49;100162.84;6242864;22;20004;-64
2022/06/07 02:54:26;;;;;;;9.85;8.85;;;;;;;17.76;85.50;100169.13;6242140;22;20601;-64
2022/06/07 02:56:51;;;;;;;9.45;8.45;;;;;;;17.75;85.70;100163.88;6242616;22;20006;-64
2022/06/07 02:59:16;;;;;;;10.45;9.35;;;;;;;17.73;85.78;100160.50;6241066;23;20325;-64
2022/06/07 03:01:42;;;;;;;16.65;10.23;;;;;;;17.66;86.09;100154.97;6241095;23;20095;-64
2022/06/07 03:04:07;;;;;;;20.85;9.77;;;;;;;17.72;86.61;100162.38;6242167;22;20018;-64
2022/06/07 03:06:33;;;;;;;18.23;9.50;;;;;;;17.63;86.59;100151.78;6242506;22;20010;-64
2022/06/07 03:08:58;;;;;;;10.98;9.10;;;;;;;17.67;86.04;100153.94;6242337;22;20324;-64
2022/06/07 03:11:24;;;;;;;11.20;8.75;;;;;;;17.68;85.85;100160.22;6242259;22;20022;-64
2022/06/07 03:13:49;;;;;;;11.98;9.15;;;;;;;17.60;86.16;100154.84;6242621;22;20000;-64
2022/06/07 03:16:15;;;;;;;10.32;9.30;;;;;;;17.63;86.21;100158.06;6242490;22;20019;-64
2022/06/07 03:18:41;;;;;;;11.02;9.85;;;;;;;17.56;85.98;100142.69;6240555;23;20004;-64
2022/06/07 03:21:07;;;;;;;16.52;9.70;;;;;;;17.60;86.16;100157.56;6242372;22;20008;-64
2022/06/07 03:23:33;;;;;;;12.13;9.15;;;;;;;17.60;86.33;100160.28;6238925;23;20511;-64
2022/06/07 03:26:06;;;;;;;13.18;10.70;;;;;;;17.60;86.55;100157.56;6242047;23;20003;-64
2022/06/07 03:28:33;;;;;;;12.48;9.75;;;;;;;17.57;87.14;100152.50;6242364;22;20010;-65
2022/06/07 03:31:07;;;;;;;15.40;10.27;;;;;;;17.60;87.81;100150.28;6242302;22;20042;-64
2022/06/07 03:33:34;;;;;;;11.82;9.57;;;;;;;17.69;87.12;100156.47;6241475;22;20088;-64
2022/06/07 03:36:09;;;;;;;15.57;11.75;;;;;;;17.74;87.50;100154.88;6242297;22;20024;-64
2022/06/07 03:38:35;;;;;;;13.32;9.85;;;;;;;17.80;88.18;100153.31;6242072;22;20004;-64
2022/06/07 03:41:00;;;;;;;14.13;9.77;;;;;;;17.86;88.19;100157.97;6240642;23;20108;-64
2022/06/07 03:43:26;;;;;;;12.55;9.93;;;;;;;17.93;88.06;100148.09;6242130;22;20004;-64
2022/06/07 03:45:52;;;;;;;13.32;10.65;;;;;;;18.03;87.59;100151.38;6242065;23;20328;-64
2022/06/07 03:48:17;;;;;;;13.90;10.43;;;;;;;18.12;87.70;100149.41;6237948;23;20023;-64
2022/06/07 03:50:42;;;;;;;14.57;9.63;;;;;;;18.15;87.10;100138.19;6236703;22;20007;-64
2022/06/07 03:53:08;;;;;;;10.35;9.27;;;;;;;18.24;86.80;100137.03;6242132;22;20008;-64
2022/06/07 03:55:33;;;;;;;12.60;9.25;;;;;;;18.37;85.96;100134.53;6242022;22;20384;-64
2022/06/07 03:57:59;;;;;;;12.20;9.30;;;;;;;18.27;85.78;100104.94;6240420;22;20011;-64
2022/06/07 04:00:24;;;;;;;11.98;9.82;;;;;;;18.58;86.18;100140.03;6241967;22;20008;-64
2022/06/07 04:02:51;;;;;;;11.40;9.07;;;;;;;18.71;85.31;100140.19;6242070;23;20024;-65
2022/06/07 04:05:17;;;;;;;10.52;9.48;;;;;;;18.81;85.11;100138.03;6241983;22;20022;-64
2022/06/07 04:10:26;;;;;;;10.43;9.38;;;;;;;19.07;84.34;100132.88;6241961;23;20015;-64
2022/06/07 04:12:51;;;;;;;11.48;9.25;;;;;;;19.20;84.48;100138.44;6242399;22;20004;-64
2022/06/07 04:15:18;;;;;;;11.60;9.00;;;;;;;19.31;83.61;100130.63;6241761;22;20079;-64
2022/06/07 04:17:43;;;;;;;11.93;9.27;;;;;;;19.37;83.68;100118.13;6241786;22;20374;-64
2022/06/07 04:20:10;;;;;;;9.63;7.75;;;;;;;19.59;83.13;100134.25;6241721;22;20004;-64
2022/06/07 04:22:36;;;;;;;10.60;8.27;;;;;;;19.69;82.64;100117.56;6241859;22;20007;-64
2022/06/07 04:25:01;;;;;;;9.15;8.10;;;;;;;19.83;82.24;100117.44;6242019;22;20004;-65
2022/06/07 04:27:26;;;;;;;11.70;8.32;;;;;;;19.99;82.03;100127.19;6241577;22;20008;-64
2022/06/07 04:29:52;;;;;;;9.77;7.95;;;;;;;20.11;81.89;100125.59;6241972;22;20126;-65
2022/06/07 04:32:18;;;;;;;13.65;7.82;;;;;;;20.22;81.86;100122.34;6241738;22;20062;-64
2022/06/07 04:34:46;;;;;;;10.05;7.55;;;;;;;20.36;81.46;100118.66;6243202;22;20003;-66
2022/06/07 04:37:11;;;;;;;8.82;7.57;;;;;;;20.50;81.30;100117.66;6244003;22;20000;-65
2022/06/07 04:39:37;;;;;;;10.98;7.22;;;;;;;20.52;80.94;100103.81;6243765;22;20058;-65
2022/06/07 04:42:03;;;;;;;11.10;7.90;;;;;;;20.79;80.38;100127.44;6243986;23;20004;-65
2022/06/07 04:44:30;;;;;;;11.85;7.72;;;;;;;20.91;80.04;100126.63;6243780;22;20675;-65
2022/06/07 04:46:55;;;;;;;9.50;6.97;;;;;;;20.98;79.88;100113.00;6243671;22;20074;-65
2022/06/07 04:49:21;;;;;;;8.25;6.80;;;;;;;21.17;79.68;100123.97;6243931;23;20035;-64
2022/06/07 04:51:46;;;;;;;7.97;7.18;;;;;;;21.27;78.92;100120.84;6243662;22;20007;-64
2022/06/07 04:54:12;;;;;;;8.20;6.65;;;;;;;21.44;78.40;100122.94;6243744;22;20008;-65
2022/06/07 04:56:37;;;;;;;10.55;6.75;;;;;;;21.57;77.74;100133.06;6243618;22;20007;-64
2022/06/07 04:59:06;;;;;;;10.95;6.28;;;;;;;21.72;77.29;100122.75;6243409;22;20016;-65
2022/06/07 05:01:38;;;;;;;7.47;6.45;;;;;;;21.85;76.68;100120.88;6243548;22;20008;-64
2022/06/07 05:04:05;;;;;;;7.53;4.53;;;;;;;22.08;76.04;100120.41;6243584;22;20012;-65
2022/06/07 05:06:32;;;;;;;6.63;5.03;;;;;;;22.30;74.93;100127.28;6243611;22;20026;-64
2022/06/07 05:09:04;;;;;;;6.68;5.53;;;;;;;22.48;73.76;100132.06;6243772;22;20413;-64
2022/06/07 05:11:30;;;;;;;7.35;5.32;;;;;;;22.66;73.42;100133.06;6243533;22;20008;-64
2022/06/07 05:13:58;;;;;;;6.38;4.40;;;;;;;22.84;72.72;100130.47;6241858;23;20004;-64
2022/06/07 05:16:24;;;;;;;7.35;4.97;;;;;;;22.90;71.94;100112.34;6243490;22;20353;-65
2022/06/07 05:18:52;;;;;;;5.45;4.95;;;;;;;23.06;71.51;100120.91;6241963;23;20004;-64
2022/06/07 05:21:18;;;;;;;4.03;3.63;;;;;;;23.32;70.50;100145.38;6243378;22;20012;-64
2022/06/07 05:23:44;;;;;;;6.88;4.20;;;;;;;23.45;69.71;100136.22;6243507;22;20027;-65
2022/06/07 05:26:15;;;;;;;4.93;4.43;;;;;;;23.60;69.26;100142.22;6243520;22;20015;-65
2022/06/07 05:28:42;;;;;;;5.70;3.47;;;;;;;23.81;68.96;100136.34;6243236;22;20000;-64
2022/06/07 05:31:08;;;;;;;5.82;4.00;;;;;;;23.97;68.07;100127.59;6243467;22;20452;-64
2022/06/07 05:33:34;;;;;;;4.07;3.78;;;;;;;24.08;67.25;100126.84;6243087;22;20012;-64
2022/06/07 05:35:59;;;;;;;10.70;4.05;;;;;;;24.24;66.91;100140.81;6242215;22;20007;-65
2022/06/07 05:38:25;;;;;;;5.53;3.28;;;;;;;24.37;66.89;100131.59;6243061;22;20000;-64
2022/06/07 05:40:54;;;;;;;6.03;3.38;;;;;;;24.58;65.77;100133.03;6243184;22;20004;-65
2022/06/07 05:43:20;;;;;;;5.45;3.70;;;;;;;24.72;65.07;100131.81;6242788;22;20012;-65
2022/06/07 05:45:50;;;;;;;5.05;3.22;;;;;;;24.85;64.24;100128.94;6242554;22;20230;-64
2022/06/07 05:48:16;;;;;;;6.85;3.60;;;;;;;24.93;63.25;100120.38;6243099;22;20083;-65
2022/06/07 05:50:50;;;;;;;6.88;3.63;;;;;;;25.16;62.81;100136.94;6242976;22;20000;-65
2022/06/07 05:53:17;;;;;;;8.48;3.63;;;;;;;25.26;62.33;100140.78;6243034;22;20004;-65
2022/06/07 05:55:43;;;;;;;7.72;3.05;;;;;;;25.39;61.41;100135.13;6242620;22;20006;-64
2022/06/07 05:58:09;;;;;;;11.63;3.88;;;;;;;25.47;60.78;100129.28;6242888;22;20004;-65
2022/06/07 06:00:36;;;;;;;4.68;3.65;;;;;;;25.57;60.46;100128.72;6241379;23;20500;-65
2022/06/07 06:03:02;;;;;;;8.00;3.85;;;;;;;25.78;60.34;100137.25;6242879;22;20071;-65
2022/06/07 06:05:28;;;;;;;8.77;4.00;;;;;;;25.88;59.27;100132.00;6243176;22;20000;-64
2022/06/07 06:10:37;;;;;;;8.10;3.38;;;;;;;26.05;58.52;100130.22;6243296;23;20134;-63
2022/06/07 06:13:03;;;;;;;6.78;2.78;;;;;;;26.23;57.34;100121.00;6243459;22;20028;-64
2022/06/07 06:15:28;;;;;;;4.60;3.03;;;;;;;26.43;55.29;100118.69;6243119;22;20004;-64
2022/06/07 06:17:55;;;;;;;5.28;3.25;;;;;;;26.57;55.08;100131.13;6243295;22;20421;-65
2022/06/07 06:20:21;;;;;;;4.32;3.03;;;;;;;26.62;55.16;100124.91;6242955;22;20008;-65
2022/06/07 06:22:47;;;;;;;5.72;2.58;;;;;;;26.81;55.11;100126.41;6241009;23;20019;-64
2022/06/07 06:25:13;;;;;;;5.20;2.80;;;;;;;26.97;54.43;100131.16;6242870;22;20004;-66
2022/06/07 06:27:38;;;;;;;2.80;2.60;;;;;;;27.15;53.16;100120.75;6242831;22;20008;-65
2022/06/07 06:30:06;;;;;;;6.68;3.28;;;;;;;27.27;52.49;100126.28;6243110;22;20114;-65
2022/06/07 06:32:32;;;;;;;3.25;2.95;;;;;;;27.38;51.28;100128.97;6242650;22;20368;-65
2022/06/07 06:34:57;;;;;;;2.72;2.53;;;;;;;27.47;51.11;100138.47;6242932;22;20000;-65
2022/06/07 06:37:23;;;;;;;5.57;3.30;;;;;;;27.60;50.85;100138.16;6242694;22;20011;-66
2022/06/07 06:39:48;;;;;;;4.05;3.35;;;;;;;27.67;49.79;100126.97;6242476;22;20011;-65
2022/06/07 06:42:15;;;;;;;5.95;3.15;;;;;;;27.77;49.80;100133.50;6241175;23;20010;-65
2022/06/07 06:44:40;;;;;;;3.83;3.50;;;;;;;27.87;49.45;100130.09;6242626;22;20004;-66
2022/06/07 06:47:07;;;;;;;3.80;3.47;;;;;;;27.89;49.32;100122.41;6242724;22;20463;-65
2022/06/07 06:49:33;;;;;;;3.80;3.45;;;;;;;27.95;48.63;100126.94;6242487;22;20008;-65
2022/06/07 06:51:59;;;;;;;4.88;3.30;;;;;;;28.07;48.89;100125.75;6241507;22;20094;-65
2022/06/07 06:54:25;;;;;;;5.75;2.80;;;;;;;28.21;47.96;100120.72;6240671;23;20011;-65
2022/06/07 06:56:51;;;;;;;8.27;3.28;;;;;;;28.33;46.70;100125.00;6241186;22;20000;-65
2022/06/07 06:59:17;;;;;;;4.30;3.00;;;;;;;28.50;45.83;100123.06;6242315;22;20016;-65
2022/06/07 07:01:43;;;;;;;3.53;3.20;;;;;;;28.64;46.06;100123.53;6242461;22;20026;-65
2022/06/07 07:04:13;;;;;;;3.17;2.75;;;;;;;28.78;45.64;100118.44;6242060;22;20010;-66
2022/06/07 07:06:38;;;;;;;5.03;3.08;;;;;;;28.82;45.35;100119.63;6241964;22;20007;-65
2022/06/07 07:09:07;;;;;;;5.15;3.05;;;;;;;28.75;44.31;100096.91;6242253;22;20008;-65
2022/06/07 07:11:39;;;;;;;5.97;3.55;;;;;;;28.89;44.21;100111.97;6242014;22;20014;-65
2022/06/07 07:14:06;;;;;;;3.22;3.03;;;;;;;29.06;43.49;100110.81;6242332;22;20054;-65
2022/06/07 07:16:34;;;;;;;4.18;3.42;;;;;;;29.22;41.91;100109.03;6242223;22;20016;-65
2022/06/07 07:19:00;;;;;;;7.18;3.60;;;;;;;29.34;41.55;100101.44;6242279;22;20442;-65
2022/06/07 07:21:35;;;;;;;3.20;2.90;;;;;;;29.48;41.43;100108.19;6242158;22;20122;-65
2022/06/07 07:24:08;;;;;;;3.50;3.20;;;;;;;29.61;41.04;100099.50;6242329;22;20473;-65
2022/06/07 07:26:36;;;;;;;3.65;3.13;;;;;;;29.72;40.74;100109.53;6242106;22;20012;-65
2022/06/07 07:29:03;;;;;;;3.17;2.97;;;;;;;29.77;40.67;100090.22;6240686;23;20086;-65
2022/06/07 07:31:34;;;;;;;3.85;3.55;;;;;;;29.83;40.57;100084.47;6242069;22;20504;-65
2022/06/07 07:34:03;;;;;;;3.30;3.10;;;;;;;29.94;40.56;100101.97;6241931;22;20437;-65
2022/06/07 07:36:29;;;;;;;3.60;3.30;;;;;;;29.96;40.89;100095.09;6242026;22;20004;-65
2022/06/07 07:38:55;;;;;;;9.20;3.55;;;;;;;30.06;40.47;100091.53;6241945;22;20028;-65
2022/06/07 07:41:28;;;;;;;4.03;3.72;;;;;;;30.12;39.79;100093.25;6242058;22;20038;-65
2022/06/07 07:43:56;;;;;;;3.97;3.67;;;;;;;30.16;39.92;100091.59;6242042;22;20008;-65
2022/06/07 07:46:23;;;;;;;3.78;3.20;;;;;;;30.27;39.59;100087.81;6241693;22;20008;-66
2022/06/07 07:48:49;;;;;;;5.45;3.40;;;;;;;30.32;39.21;100088.69;6241789;22;20468;-65
2022/06/07 07:51:23;;;;;;;3.70;3.35;;;;;;;30.42;39.44;100074.91;6241913;22;20004;-66
2022/06/07 07:53:50;;;;;;;5.35;3.55;;;;;;;30.45;39.12;100076.28;6241859;22;20007;-66
2022/06/07 07:56:16;;;;;;;6.00;3.33;;;;;;;30.50;38.27;100082.69;6241671;22;20008;-65
2022/06/07 07:58:42;;;;;;;3.47;3.22;;;;;;;30.63;37.94;100079.41;6239862;23;20020;-65
2022/06/07 08:01:10;;;;;;;3.25;2.92;;;;;;;30.71;36.89;100077.22;6265590;22;20034;-66
2022/06/07 08:03:37;;;;;;;3.35;3.08;;;;;;;30.74;36.67;100080.31;6241582;22;20012;-65
2022/06/07 08:06:05;;;;;;;5.88;2.90;;;;;;;30.77;35.76;100073.41;6241875;22;20024;-65
2022/06/07 08:08:30;;;;;;;3.10;2.90;;;;;;;30.76;36.06;100072.56;6239912;23;20000;-65
2022/06/07 08:10:56;;;;;;;7.82;3.15;;;;;;;30.91;35.83;100074.56;6241783;22;20000;-65
2022/06/07 08:13:22;;;;;;;3.17;2.97;;;;;;;30.99;35.29;100077.63;6241610;22;20031;-65
2022/06/07 08:15:47;;;;;;;3.35;3.05;;;;;;;31.05;35.39;100071.00;6241590;22;20429;-64
2022/06/07 08:18:13;;;;;;;5.70;2.92;;;;;;;31.17;35.42;100074.31;6241772;22;20015;-65
2022/06/07 08:20:38;;;;;;;4.43;3.20;;;;;;;31.18;34.86;100072.41;6241525;22;20469;-65
2022/06/07 08:23:08;;;;;;;2.47;2.28;;;;;;;31.25;34.75;100068.25;6241720;22;20040;-65
2022/06/07 08:25:34;;;;;;;4.70;2.92;;;;;;;31.19;32.77;100066.56;6241645;22;20008;-65
2022/06/07 08:28:02;;;;;;;4.05;2.67;;;;;;;31.08;33.89;100042.72;6240866;22;20437;-65
2022/06/07 08:30:28;;;;;;;3.83;2.63;;;;;;;31.22;33.97;100066.03;6241440;22;20413;-66
2022/06/07 08:32:53;;;;;;;3.47;2.78;;;;;;;31.25;33.92;100064.63;6240756;23;20066;-65
2022/06/07 08:38:04;;;;;;;2.30;2.10;;;;;;;31.41;33.49;100058.03;6241895;23;20460;-65
2022/06/07 08:40:42;;;;;;;4.72;2.75;;;;;;;31.47;32.78;100060.50;6241569;22;20000;-65
2022/06/07 08:43:18;;;;;;;2.45;2.25;;;;;;;31.52;32.98;100056.91;6241481;22;20032;-65
2022/06/07 08:45:46;;;;;;;2.30;2.10;;;;;;;31.60;32.71;100051.63;6241505;22;20004;-65
2022/06/07 08:48:26;;;;;;;3.83;2.20;;;;;;;31.64;32.24;100050.00;6241543;22;20000;-65
2022/06/07 08:51:28;;;;;;;2.75;2.15;;;;;;;31.68;31.27;100045.53;6241388;22;20421;-66
2022/06/07 08:53:58;;;;;;;3.33;2.30;;;;;;;31.73;31.41;100048.31;6241357;22;20015;-66
2022/06/07 08:56:34;;;;;;;3.53;2.10;;;;;;;31.75;31.58;100045.25;6241052;22;20000;-65
2022/06/07 08:59:09;;;;;;;2.60;2.10;;;;;;;31.80;31.57;100035.03;6240733;22;20031;-65
2022/06/07 09:01:47;;;;;;;2.00;1.80;;;;;;;31.85;31.45;100037.78;6241076;22;20528;-64
2022/06/07 09:04:25;;;;;;;4.53;2.10;;;;;;;31.90;31.45;100035.00;6240963;22;20012;-65
2022/06/07 09:06:57;;;;;;;2.67;2.00;;;;;;;31.92;31.42;100030.00;6241009;22;20000;-65
2022/06/07 09:12:16;;;;;;;2.58;2.30;;;;;;;32.04;30.68;100026.91;6240892;23;20023;-65
2022/06/07 09:14:49;;;;;;;4.10;1.92;;;;;;;31.91;30.57;100033.03;6239281;23;20004;-65
2022/06/07 09:17:21;;;;;;;2.27;2.17;;;;;;;31.79;30.96;100022.22;6240948;22;20062;-65
2022/06/07 09:19:49;;;;;;;2.00;1.67;;;;;;;31.86;30.91;100027.53;6241498;22;20007;-64
2022/06/07 09:22:25;;;;;;;2.78;2.53;;;;;;;31.77;30.35;100021.69;6242752;22;20024;-65
2022/06/07 09:25:03;;;;;;;3.72;2.22;;;;;;;31.74;31.00;100019.47;6242867;22;20004;-65
2022/06/07 09:27:33;;;;;;;2.60;2.03;;;;;;;31.74;31.35;100018.63;6242266;22;20008;-65
2022/06/07 09:30:09;;;;;;;2.70;2.25;;;;;;;31.71;31.56;100013.63;6242624;22;20337;-66
2022/06/07 09:32:37;;;;;;;3.05;1.90;;;;;;;31.61;30.89;100008.94;6242171;22;20499;-65
2022/06/07 09:35:14;;;;;;;2.00;1.90;;;;;;;31.68;31.23;100009.47;6242873;22;20012;-65
2022/06/07 09:37:54;;;;;;;3.17;2.25;;;;;;;31.73;31.22;100012.25;6240535;23;20004;-66
2022/06/07 09:40:26;;;;;;;2.03;1.92;;;;;;;31.84;30.76;100004.75;6240712;23;20011;-65
2022/06/07 09:43:12;;;;;;;3.90;2.45;;;;;;;31.93;30.51;100008.63;6242405;22;20004;-65
2022/06/07 09:45:52;;;;;;;2.55;1.95;;;;;;;31.98;30.82;99994.75;6180046;22;20004;-66
2022/06/07 09:48:29;;;;;;;2.42;2.20;;;;;;;32.09;30.54;99994.44;6242329;22;20000;-63
2022/06/07 09:51:19;;;;;;;2.10;1.90;;;;;;;32.12;30.30;99991.09;6242762;22;19996;-65
2022/06/07 09:54:19;;;;;;;3.63;1.80;;;;;;;32.10;30.13;99984.16;6242260;22;20597;-65
2022/06/07 09:57:24;;;;;;;2.60;2.40;;;;;;;32.06;30.68;99983.91;6242183;22;20032;-66
2022/06/07 10:00:11;;;;;;;12.88;2.67;;;;;;;32.06;30.90;99981.13;6207119;22;20028;-65
2022/06/07 10:03:14;;;;;;;3.95;2.25;;;;;;;31.98;30.91;99986.44;6242679;22;20004;-65
2022/06/07 10:06:05;;;;;;;3.35;2.08;;;;;;;31.92;30.88;99976.47;6242728;23;20012;-65
2022/06/07 10:08:40;;;;;;;3.72;2.13;;;;;;;31.89;31.22;99974.25;6242821;22;20019;-65
2022/06/07 10:11:38;;;;;;;2.25;2.05;;;;;;;31.91;31.33;99972.00;6243335;22;20003;-65
2022/06/07 10:14:28;;;;;;;2.63;2.30;;;;;;;31.93;31.31;99973.41;6241973;23;20016;-65
2022/06/07 10:17:15;;;;;;;3.92;2.10;;;;;;;31.98;31.05;99962.25;6242808;22;20696;-65
2022/06/07 10:19:55;;;;;;;4.43;2.40;;;;;;;31.99;30.89;99954.78;6242298;23;20031;-62
2022/06/07 10:22:27;;;;;;;2.83;2.10;;;;;;;31.93;31.00;99958.69;6242723;23;20004;-63
2022/06/07 10:25:14;;;;;;;2.40;2.03;;;;;;;31.86;30.99;99949.84;6242689;23;20038;-64
2022/06/07 10:27:58;;;;;;;2.15;2.03;;;;;;;31.70;31.32;99946.25;6242498;22;20000;-63
2022/06/07 10:30:45;;;;;;;3.45;2.20;;;;;;;31.70;31.35;99949.03;6242562;22;20608;-63
2022/06/07 10:33:22;;;;;;;2.50;2.30;;;;;;;31.70;31.41;99953.72;6242399;23;20032;-63
2022/06/07 10:36:12;;;;;;;2.75;2.15;;;;;;;31.66;31.30;99944.31;6242268;23;20008;-63
2022/06/07 10:39:27;;;;;;;2.00;1.85;;;;;;;31.66;31.45;99944.31;6242590;23;20000;-63
2022/06/07 10:41:52;;;;;;;2.22;2.05;;;;;;;31.63;31.71;99950.41;6206683;22;20421;-63
2022/06/07 10:44:38;;;;;;;2.28;2.08;;;;;;;31.59;31.37;99944.59;6242413;23;20000;-63
2022/06/07 10:47:27;;;;;;;2.03;1.92;;;;;;;31.62;31.41;99930.16;6242468;22;20000;-63
2022/06/07 10:49:56;;;;;;;2.45;2.25;;;;;;;31.66;31.31;99936.00;6242102;22;20015;-63
2022/06/07 10:52:33;;;;;;;2.30;2.10;;;;;;;31.64;31.20;99924.34;6240650;23;20012;-63
2022/06/07 10:55:13;;;;;;;1.83;1.73;;;;;;;31.74;31.31;99933.47;6242378;22;20019;-63
2022/06/07 10:58:29;;;;;;;2.40;2.20;;;;;;;31.72;31.51;99924.59;6242530;22;20460;-63
2022/06/07 11:01:07;;;;;;;2.53;1.95;;;;;;;31.69;31.19;99922.38;6190324;22;20509;-63
2022/06/07 11:03:41;;;;;;;2.70;1.92;;;;;;;31.68;31.75;99925.44;6242254;22;20039;-64
2022/06/07 11:09:19;;;;;;;4.20;2.20;;;;;;;31.52;31.33;99905.22;6242207;23;19954;-64
2022/06/07 11:11:47;;;;;;;5.47;2.30;;;;;;;31.47;31.03;99904.44;6242112;22;20085;-64
2022/06/07 11:14:18;;;;;;;2.28;2.10;;;;;;;31.51;31.54;99913.84;6242304;22;20008;-64
2022/06/07 11:16:56;;;;;;;4.93;2.20;;;;;;;31.47;31.95;99907.19;6241789;23;20004;-64
2022/06/07 11:19:22;;;;;;;5.32;2.05;;;;;;;31.30;31.02;99893.63;6241745;22;20079;-64
2022/06/07 11:21:53;;;;;;;5.18;2.25;;;;;;;31.29;31.65;99899.44;6242016;22;20432;-64
2022/06/07 11:24:32;;;;;;;3.38;2.00;;;;;;;31.16;32.05;99889.75;6241998;22;20023;-64
2022/06/07 11:27:13;;;;;;;2.35;2.20;;;;;;;31.27;31.88;99898.94;6240572;23;20061;-64
2022/06/07 11:29:39;;;;;;;2.78;2.00;;;;;;;31.33;31.90;99893.06;6242018;22;20078;-64
2022/06/07 11:32:39;;;;;;;2.17;1.98;;;;;;;31.37;31.55;99885.03;6242315;22;20000;-64
2022/06/07 11:35:42;;;;;;;2.65;1.90;;;;;;;31.37;31.52;99883.06;6242216;22;20449;-64
2022/06/07 11:38:17;;;;;;;1.80;1.70;;;;;;;31.40;31.42;99874.19;6242161;22;20032;-64
2022/06/07 11:40:43;;;;;;;2.10;2.00;;;;;;;31.42;32.06;99874.75;6241958;23;20004;-64
2022/06/07 11:44:06;;;;;;;1.98;1.88;;;;;;;31.44;31.78;99868.94;6241499;22;20004;-64
2022/06/07 11:46:34;;;;;;;2.10;2.00;;;;;;;31.47;31.51;99863.63;6119051;23;20679;-64
2022/06/07 11:49:21;;;;;;;2.53;2.00;;;;;;;31.48;31.57;99864.47;6119380;23;20153;-64
2022/06/07 11:52:13;;;;;;;3.20;2.00;;;;;;;31.51;31.70;99867.53;6195754;22;20012;-64
2022/06/07 11:54:45;;;;;;;2.15;2.03;;;;;;;31.51;31.56;99858.38;6187125;22;20362;-64
2022/06/07 11:57:31;;;;;;;2.17;1.98;;;;;;;31.51;31.53;99850.91;6240411;23;20087;-64
2022/06/07 11:59:57;;;;;;;2.10;1.90;;;;;;;31.52;31.65;99851.72;6241487;23;20091;-64